Time;durP1;ratioP1;P1;durP2;ratioP2;P2;SDS_P1;SDS_P2;PMS_P1;PMS_P2;Temp;Humidity;BMP_temperature;BMP_pressure;BME280_temperature;BME280_humidity;BME280_pressure;Samples;Min_cycle;Max_cycle;Signal;HPM_P1;HPM_P2
2023/12/16 00:00:57;;;;;;;0.80;0.50;;;;;;;-143.84;99.56;45258.53;5090453;28;20485;-63
2023/12/16 00:03:24;;;;;;;0.90;0.80;;;;;;;-143.84;100.00;45262.34;5090170;28;20486;-63
2023/12/16 00:05:53;;;;;;;1.30;0.97;;;;;;;-143.84;100.00;45256.63;5090367;28;20445;-64
2023/12/16 00:08:21;;;;;;;0.80;0.70;;;;;;;-143.84;99.69;45264.25;5090494;28;20446;-64
2023/12/16 00:10:48;;;;;;;0.80;0.50;;;;;;;-143.84;100.00;45273.78;5090495;28;20537;-63
2023/12/16 00:13:15;;;;;;;0.80;0.47;;;;;;;-143.84;100.00;45245.19;5090605;28;20451;-64
2023/12/16 00:15:44;;;;;;;1.00;0.70;;;;;;;-143.84;100.00;45269.97;5090344;28;20808;-64
2023/12/16 00:18:11;;;;;;;0.80;0.70;;;;;;;-143.84;100.00;45249.00;5090079;28;20584;-63
2023/12/16 00:20:38;;;;;;;1.07;0.97;;;;;;;-143.84;100.00;45290.91;5090306;28;20457;-64
2023/12/16 00:23:05;;;;;;;1.83;1.53;;;;;;;-143.84;100.00;45281.38;5090368;28;20457;-63
2023/12/16 00:25:33;;;;;;;0.80;0.50;;;;;;;-143.84;99.35;45269.97;5090304;28;20992;-64
2023/12/16 00:28:00;;;;;;;1.13;1.03;;;;;;;-143.84;99.65;45235.69;5090037;28;20429;-64
2023/12/16 00:30:27;;;;;;;0.80;0.60;;;;;;;-143.84;99.95;45241.41;5089965;28;20933;-64
2023/12/16 00:32:55;;;;;;;0.80;0.50;;;;;;;-143.84;100.00;45262.34;5089874;28;20491;-64
2023/12/16 00:35:22;;;;;;;2.03;1.93;;;;;;;-143.84;99.71;45239.50;5089903;28;20983;-64
2023/12/16 00:37:50;;;;;;;2.03;1.20;;;;;;;-143.84;99.88;45260.44;5089871;28;20448;-64
2023/12/16 00:40:17;;;;;;;0.80;0.47;;;;;;;-143.84;99.63;45256.63;5090079;28;20997;-64
2023/12/16 00:42:44;;;;;;;0.80;0.50;;;;;;;-143.84;100.00;45254.72;5089099;28;20480;-64
2023/12/16 00:45:11;;;;;;;2.93;2.67;;;;;;;-143.84;99.85;45247.09;5089921;28;20468;-64
2023/12/16 00:47:39;;;;;;;1.00;0.90;;;;;;;-143.84;100.00;45296.63;5089790;28;20542;-64
2023/12/16 00:50:09;;;;;;;3.83;1.70;;;;;;;-143.84;100.00;45262.34;5089544;28;20437;-64
2023/12/16 00:52:36;;;;;;;1.17;0.93;;;;;;;-143.84;100.00;45262.34;5089900;28;20485;-64
2023/12/16 00:55:03;;;;;;;0.80;0.50;;;;;;;-143.84;100.00;45268.06;5089486;28;20476;-64
2023/12/16 00:57:30;;;;;;;0.80;0.53;;;;;;;-143.84;100.00;45281.38;5089569;28;20544;-64
2023/12/16 00:59:58;;;;;;;0.80;0.70;;;;;;;-143.84;100.00;45260.44;5089528;28;20496;-64
2023/12/16 01:02:25;;;;;;;0.80;0.50;;;;;;;-143.84;100.00;45266.16;5089346;28;20450;-63
2023/12/16 01:04:52;;;;;;;1.00;0.90;;;;;;;-143.84;100.00;45231.88;5089675;28;20442;-64
2023/12/16 01:07:21;;;;;;;0.80;0.60;;;;;;;-143.84;100.00;45247.09;5089643;28;21023;-64
2023/12/16 01:09:50;;;;;;;0.80;0.60;;;;;;;-143.84;100.00;45281.38;5089712;28;20514;-64
2023/12/16 01:12:17;;;;;;;0.90;0.70;;;;;;;-143.84;100.00;45249.00;5089353;28;20499;-64
2023/12/16 01:14:44;;;;;;;1.37;1.27;;;;;;;-143.84;100.00;45281.38;5088959;28;20490;-64
2023/12/16 01:17:11;;;;;;;0.80;0.70;;;;;;;-143.84;100.00;45262.34;5089145;28;20484;-64
2023/12/16 01:19:39;;;;;;;0.80;0.50;;;;;;;-143.84;100.00;45249.00;5089363;28;20494;-64
2023/12/16 01:22:06;;;;;;;1.13;1.00;;;;;;;-143.84;100.00;45260.44;5089147;28;20451;-64
2023/12/16 01:24:36;;;;;;;1.07;0.97;;;;;;;-143.84;100.00;45254.72;5089202;28;20436;-64
2023/12/16 01:27:04;;;;;;;0.80;0.50;;;;;;;-143.84;100.00;45247.09;5089010;28;20453;-64
2023/12/16 01:29:32;;;;;;;0.80;0.40;;;;;;;-143.84;100.00;45258.53;5089078;28;20458;-64
2023/12/16 01:31:59;;;;;;;0.80;0.50;;;;;;;-143.84;100.00;45266.16;5089257;28;20806;-64
2023/12/16 01:34:26;;;;;;;0.80;0.50;;;;;;;-143.84;100.00;45260.44;5088813;28;20444;-64
2023/12/16 01:36:53;;;;;;;0.80;0.60;;;;;;;-143.84;100.00;45275.66;5088931;28;20451;-64
2023/12/16 01:39:20;;;;;;;0.80;0.50;;;;;;;-143.84;100.00;45268.06;5089024;28;20772;-64
2023/12/16 01:41:49;;;;;;;0.80;0.50;;;;;;;-143.84;100.00;45285.19;5088824;28;20791;-64
2023/12/16 01:44:16;;;;;;;0.97;0.87;;;;;;;-143.84;100.00;45289.00;5088956;28;20512;-64
2023/12/16 01:46:42;;;;;;;0.80;0.50;;;;;;;-143.84;100.00;45262.34;5088770;28;20437;-64
2023/12/16 01:49:10;;;;;;;1.47;1.07;;;;;;;-143.84;100.00;45258.53;5088858;28;21034;-64
2023/12/16 01:51:39;;;;;;;1.00;0.90;;;;;;;-143.84;100.00;45250.91;5088776;28;20445;-64
2023/12/16 01:54:07;;;;;;;0.80;0.50;;;;;;;-143.84;100.00;45249.00;5088670;28;20860;-64
2023/12/16 01:56:35;;;;;;;0.80;0.70;;;;;;;-143.84;100.00;45271.88;5088390;28;20816;-63
2023/12/16 01:59:04;;;;;;;1.53;1.33;;;;;;;-143.84;100.00;45271.88;5088538;28;20441;-64
2023/12/16 02:01:32;;;;;;;0.80;0.50;;;;;;;-143.84;100.00;45298.53;5088621;28;21280;-64
2023/12/16 02:03:59;;;;;;;0.80;0.40;;;;;;;-143.84;100.00;45254.72;5088803;28;20948;-63
2023/12/16 02:06:27;;;;;;;0.87;0.73;;;;;;;-143.84;100.00;45239.50;5088432;28;20524;-63
2023/12/16 02:08:54;;;;;;;0.80;0.50;;;;;;;-143.84;100.00;45266.16;5088460;28;20435;-64
2023/12/16 02:11:21;;;;;;;0.80;0.50;;;;;;;-143.84;100.00;45254.72;5088846;28;20435;-64
2023/12/16 02:13:51;;;;;;;0.80;0.50;;;;;;;-143.84;100.00;45262.34;5088243;28;20437;-64
2023/12/16 02:16:19;;;;;;;1.13;1.03;;;;;;;-143.84;100.00;45254.72;5088326;28;21395;-63
2023/12/16 02:18:46;;;;;;;0.80;0.60;;;;;;;-143.84;100.00;45273.78;5088571;28;20436;-64
2023/12/16 02:21:14;;;;;;;1.10;1.00;;;;;;;-143.84;100.00;45228.06;5088679;28;20432;-64
2023/12/16 02:23:42;;;;;;;0.80;0.40;;;;;;;-143.84;100.00;45241.41;5088366;28;20932;-64
2023/12/16 02:26:09;;;;;;;0.80;0.53;;;;;;;-143.84;100.00;45304.25;5088228;28;20434;-64
2023/12/16 02:28:37;;;;;;;0.90;0.70;;;;;;;-143.84;100.00;45266.16;5088371;28;20440;-64
2023/12/16 02:31:04;;;;;;;0.80;0.50;;;;;;;-143.84;100.00;45271.88;5088215;28;20437;-64
2023/12/16 02:33:31;;;;;;;1.53;1.17;;;;;;;-143.84;100.00;45258.53;5088186;28;20436;-64
2023/12/16 02:36:00;;;;;;;0.90;0.80;;;;;;;-143.84;100.00;45285.19;5088166;28;20480;-64
2023/12/16 02:38:28;;;;;;;0.80;0.50;;;;;;;-143.84;100.00;45290.91;5088535;28;20525;-64
2023/12/16 02:40:56;;;;;;;0.80;0.60;;;;;;;-143.84;100.00;45275.66;5088205;28;20846;-64
2023/12/16 02:43:23;;;;;;;0.80;0.50;;;;;;;-143.84;100.00;45256.63;5089391;28;20467;-64
2023/12/16 02:45:50;;;;;;;0.80;0.50;;;;;;;-143.84;100.00;45249.00;5088452;28;20436;-64
2023/12/16 02:48:17;;;;;;;0.80;0.60;;;;;;;-143.84;100.00;45247.09;5088068;28;20432;-64
2023/12/16 02:50:44;;;;;;;1.27;1.20;;;;;;;-143.84;100.00;45231.88;5087994;28;20768;-64
2023/12/16 02:53:12;;;;;;;0.80;0.40;;;;;;;-143.84;100.00;45256.63;5088405;28;20441;-64
2023/12/16 02:55:39;;;;;;;0.97;0.83;;;;;;;-143.84;100.00;45258.53;5088147;28;20479;-64
2023/12/16 02:58:07;;;;;;;0.80;0.50;;;;;;;-143.84;100.00;45268.06;5087995;28;20864;-64
2023/12/16 03:00:35;;;;;;;0.80;0.50;;;;;;;-143.84;100.00;45254.72;5088143;28;20440;-64
2023/12/16 03:03:02;;;;;;;0.80;0.50;;;;;;;-143.84;100.00;45279.47;5088242;28;20497;-64
2023/12/16 03:05:29;;;;;;;0.93;0.83;;;;;;;-143.84;100.00;45247.09;5090658;28;20848;-64
2023/12/16 03:07:56;;;;;;;0.80;0.50;;;;;;;-143.84;100.00;45281.38;5091720;28;20439;-63
2023/12/16 03:10:23;;;;;;;1.57;0.90;;;;;;;-143.84;100.00;45254.72;5091981;28;20435;-64
2023/12/16 03:12:51;;;;;;;1.20;1.10;;;;;;;-143.84;100.00;45266.16;5091459;28;20442;-64
2023/12/16 03:15:19;;;;;;;0.80;0.50;;;;;;;-143.84;100.00;45275.66;5091269;28;20471;-64
2023/12/16 03:17:46;;;;;;;0.80;0.50;;;;;;;-143.84;100.00;45268.06;5091074;28;21017;-64
2023/12/16 03:20:13;;;;;;;5.80;1.67;;;;;;;-143.84;100.00;45268.06;5091272;28;20444;-64
2023/12/16 03:22:42;;;;;;;0.97;0.80;;;;;;;-143.84;100.00;45258.53;5091321;28;20451;-64
2023/12/16 03:25:09;;;;;;;0.80;0.50;;;;;;;-143.84;100.00;45260.44;5091266;28;20937;-64
2023/12/16 03:27:37;;;;;;;0.80;0.50;;;;;;;-143.84;100.00;45243.31;5091528;28;20828;-64
2023/12/16 03:30:05;;;;;;;0.90;0.70;;;;;;;-143.84;100.00;45268.06;5091256;28;20489;-64
2023/12/16 03:32:33;;;;;;;0.80;0.50;;;;;;;-143.84;100.00;45241.41;5091167;28;20437;-64
2023/12/16 03:35:00;;;;;;;0.80;0.50;;;;;;;-143.84;100.00;45268.06;5090931;28;20497;-64
2023/12/16 03:37:27;;;;;;;1.20;1.00;;;;;;;-143.84;100.00;45281.38;5091378;28;20498;-64
2023/12/16 03:39:54;;;;;;;0.80;0.77;;;;;;;-143.84;100.00;45249.00;5090888;28;20561;-64
2023/12/16 03:42:22;;;;;;;0.80;0.50;;;;;;;-143.84;100.00;45250.91;5091045;28;20494;-64
2023/12/16 03:44:49;;;;;;;0.93;0.83;;;;;;;-143.84;100.00;45237.59;5091098;28;20926;-64
2023/12/16 03:47:16;;;;;;;0.80;0.60;;;;;;;-143.84;100.00;45273.78;5090742;28;20441;-64
2023/12/16 03:49:44;;;;;;;1.00;0.90;;;;;;;-143.84;100.00;45283.28;5090786;28;20443;-64
2023/12/16 03:52:12;;;;;;;1.00;0.90;;;;;;;-143.84;100.00;45256.63;5090978;28;20456;-64
2023/12/16 03:54:40;;;;;;;0.80;0.50;;;;;;;-143.84;100.00;45250.91;5090834;28;21250;-64
2023/12/16 03:57:07;;;;;;;0.80;0.50;;;;;;;-143.84;100.00;45243.31;5090561;28;20484;-64
2023/12/16 03:59:34;;;;;;;1.50;1.20;;;;;;;-143.84;100.00;45268.06;5090943;28;20441;-64
2023/12/16 04:02:01;;;;;;;0.80;0.50;;;;;;;-143.84;100.00;45256.63;5090566;28;20435;-64
2023/12/16 04:04:29;;;;;;;1.20;0.70;;;;;;;-143.84;100.00;45250.91;5090640;28;20447;-64
2023/12/16 04:07:00;;;;;;;1.07;0.97;;;;;;;-143.84;100.00;45256.63;5090299;28;20444;-64
2023/12/16 04:09:27;;;;;;;0.80;0.50;;;;;;;-143.84;100.00;45249.00;5090269;28;20448;-64
2023/12/16 04:11:55;;;;;;;0.80;0.53;;;;;;;-143.84;100.00;45260.44;5090325;28;20440;-65
2023/12/16 04:14:22;;;;;;;0.97;0.87;;;;;;;-143.84;100.00;45258.53;5090533;28;20448;-64
2023/12/16 04:16:49;;;;;;;0.80;0.50;;;;;;;-143.84;100.00;45229.97;5089013;28;20860;-65
2023/12/16 04:19:16;;;;;;;0.80;0.60;;;;;;;-143.84;100.00;45266.16;5090257;28;20458;-65
2023/12/16 04:21:43;;;;;;;0.80;0.40;;;;;;;-143.84;100.00;45277.56;5090311;28;20946;-64
2023/12/16 04:24:12;;;;;;;0.80;0.50;;;;;;;-143.84;100.00;45269.97;5090056;28;20440;-65
2023/12/16 04:26:39;;;;;;;0.80;0.40;;;;;;;-143.84;100.00;45235.69;5090253;28;20433;-65
2023/12/16 04:29:06;;;;;;;0.80;0.50;;;;;;;-143.84;100.00;45237.59;5089953;28;20428;-65
2023/12/16 04:31:33;;;;;;;0.80;0.53;;;;;;;-143.84;100.00;45235.69;5089968;28;20444;-65
2023/12/16 04:34:00;;;;;;;1.10;1.00;;;;;;;-143.84;100.00;45256.63;5090074;28;20580;-65
2023/12/16 04:36:27;;;;;;;0.80;0.40;;;;;;;-143.84;100.00;45262.34;5089466;28;20988;-65
2023/12/16 04:38:55;;;;;;;0.80;0.50;;;;;;;-143.84;100.00;45247.09;5089375;28;20498;-65
2023/12/16 04:41:23;;;;;;;0.80;0.57;;;;;;;-143.84;100.00;45252.81;5089278;28;20433;-65
2023/12/16 04:43:50;;;;;;;0.80;0.50;;;;;;;-143.84;100.00;45228.06;5089520;28;20436;-65
2023/12/16 04:46:20;;;;;;;1.80;1.70;;;;;;;-143.84;100.00;45249.00;5089496;28;20437;-65
2023/12/16 04:48:48;;;;;;;0.80;0.60;;;;;;;-143.84;100.00;45226.16;5089522;28;20530;-65
2023/12/16 04:51:15;;;;;;;1.00;0.90;;;;;;;-143.84;100.00;45262.34;5089556;28;20440;-65
2023/12/16 04:53:42;;;;;;;1.43;1.23;;;;;;;-143.84;100.00;45247.09;5089697;28;21317;-65
2023/12/16 04:56:09;;;;;;;0.80;0.60;;;;;;;-143.84;100.00;45269.97;5089431;28;20488;-65
2023/12/16 04:58:38;;;;;;;2.03;1.57;;;;;;;-143.84;100.00;45249.00;5089599;28;20471;-65
2023/12/16 05:01:05;;;;;;;0.93;0.83;;;;;;;-143.84;100.00;45258.53;5089411;28;20441;-65
2023/12/16 05:03:33;;;;;;;0.80;0.67;;;;;;;-143.84;100.00;45231.88;5089286;28;20452;-65
2023/12/16 05:06:00;;;;;;;2.10;1.93;;;;;;;-143.84;100.00;45233.78;5089323;28;20440;-65
2023/12/16 05:08:27;;;;;;;0.80;0.50;;;;;;;-143.84;100.00;45241.41;5089201;28;20443;-65
2023/12/16 05:10:54;;;;;;;0.80;0.67;;;;;;;-143.84;100.00;45252.81;5089198;28;20433;-65
2023/12/16 05:13:21;;;;;;;0.83;0.77;;;;;;;-143.84;100.00;45241.41;5088966;28;20452;-65
2023/12/16 05:15:51;;;;;;;0.80;0.50;;;;;;;-143.84;100.00;45279.47;5089323;28;20452;-65
2023/12/16 05:18:18;;;;;;;0.80;0.60;;;;;;;-143.84;100.00;45262.34;5089145;28;20580;-65
2023/12/16 05:20:45;;;;;;;1.63;1.03;;;;;;;-143.84;100.00;45226.16;5089187;28;20436;-65
2023/12/16 05:23:14;;;;;;;1.93;1.73;;;;;;;-143.84;100.00;45250.91;5089092;28;20871;-65
2023/12/16 05:25:41;;;;;;;1.00;0.90;;;;;;;-143.84;100.00;45239.50;5089174;28;20448;-65
2023/12/16 05:28:09;;;;;;;1.47;0.80;;;;;;;-143.84;100.00;45245.19;5088590;28;20449;-65
2023/12/16 05:30:36;;;;;;;0.90;0.77;;;;;;;-143.84;100.00;45250.91;5088995;28;20995;-65
2023/12/16 05:33:05;;;;;;;0.80;0.60;;;;;;;-143.84;100.00;45250.91;5088767;28;20492;-65
2023/12/16 05:35:32;;;;;;;0.80;0.50;;;;;;;-143.84;100.00;45216.63;5088649;28;20452;-65
2023/12/16 05:37:59;;;;;;;0.80;0.50;;;;;;;-143.84;100.00;45237.59;5088670;28;21024;-64
2023/12/16 05:40:26;;;;;;;1.73;1.63;;;;;;;-143.84;100.00;45266.16;5088695;28;20441;-65
2023/12/16 05:42:53;;;;;;;0.80;0.50;;;;;;;-143.84;100.00;45254.72;5088799;28;20436;-65
2023/12/16 05:45:21;;;;;;;0.80;0.70;;;;;;;-143.84;100.00;45235.69;5088757;28;20834;-65
2023/12/16 05:47:48;;;;;;;1.03;0.87;;;;;;;-143.84;100.00;45233.78;5088553;28;20439;-64
2023/12/16 05:50:16;;;;;;;0.80;0.70;;;;;;;-143.84;100.00;45231.88;5088519;28;20445;-65
2023/12/16 05:52:44;;;;;;;1.10;1.00;;;;;;;-143.84;100.00;45231.88;5088366;28;20448;-65
2023/12/16 05:55:11;;;;;;;0.80;0.50;;;;;;;-143.84;100.00;45233.78;5088578;28;20437;-64
2023/12/16 05:57:38;;;;;;;0.80;0.60;;;;;;;-143.84;100.00;45260.44;5088526;28;20489;-65
2023/12/16 06:00:08;;;;;;;0.90;0.70;;;;;;;-143.84;100.00;45264.25;5088432;28;20851;-65
2023/12/16 06:02:35;;;;;;;2.73;2.53;;;;;;;-143.84;100.00;45235.69;5088583;28;20444;-65
2023/12/16 06:05:02;;;;;;;1.10;0.63;;;;;;;-143.84;100.00;45231.88;5088492;28;20442;-65
2023/12/16 06:07:31;;;;;;;3.43;2.83;;;;;;;-143.84;100.00;45279.47;5088428;28;20539;-64
2023/12/16 06:09:58;;;;;;;0.80;0.67;;;;;;;-143.84;100.00;45237.59;5088470;28;20442;-65
2023/12/16 06:12:25;;;;;;;0.90;0.70;;;;;;;-143.84;100.00;45254.72;5088368;28;20444;-64
2023/12/16 06:14:53;;;;;;;0.80;0.60;;;;;;;-143.84;100.00;45233.78;5088535;28;20856;-65
2023/12/16 06:17:21;;;;;;;0.80;0.50;;;;;;;-143.84;100.00;45243.31;5088038;28;21101;-65
2023/12/16 06:19:48;;;;;;;0.80;0.50;;;;;;;-143.84;100.00;45239.50;5088324;28;20437;-65
2023/12/16 06:22:15;;;;;;;1.23;0.90;;;;;;;-143.84;100.00;45266.16;5088287;28;20449;-65
2023/12/16 06:24:43;;;;;;;0.80;0.40;;;;;;;-143.84;100.00;45224.25;5088600;28;20474;-65
2023/12/16 06:27:11;;;;;;;0.80;0.50;;;;;;;-143.84;100.00;45279.47;5088447;28;20776;-65
2023/12/16 06:29:40;;;;;;;0.80;0.50;;;;;;;-143.84;100.00;45256.63;5088534;28;20448;-65
2023/12/16 06:32:07;;;;;;;0.80;0.50;;;;;;;-143.84;100.00;45250.91;5088236;28;20453;-64
2023/12/16 06:34:34;;;;;;;0.80;0.60;;;;;;;-143.84;100.00;45250.91;5088497;28;20439;-64
2023/12/16 06:37:02;;;;;;;0.80;0.50;;;;;;;-143.84;100.00;45224.25;5088158;28;20572;-64
2023/12/16 06:39:29;;;;;;;1.67;1.57;;;;;;;-143.84;100.00;45256.63;5089388;28;20436;-64
2023/12/16 06:41:57;;;;;;;0.90;0.80;;;;;;;-143.84;100.00;45243.31;5092350;28;20450;-64
2023/12/16 06:44:25;;;;;;;0.80;0.50;;;;;;;-143.84;100.00;45235.69;5092118;28;20440;-64
2023/12/16 06:46:52;;;;;;;0.80;0.50;;;;;;;-143.84;100.00;45233.78;5092072;28;20437;-64
2023/12/16 06:49:19;;;;;;;0.80;0.50;;;;;;;-143.84;100.00;45228.06;5091891;28;20446;-64
2023/12/16 06:51:47;;;;;;;1.00;0.87;;;;;;;-143.84;100.00;45258.53;5091958;28;21056;-64
2023/12/16 06:54:14;;;;;;;0.80;0.60;;;;;;;-143.84;100.00;45237.59;5091667;28;20868;-64
2023/12/16 06:56:41;;;;;;;0.80;0.50;;;;;;;-143.84;100.00;45262.34;5091807;28;20481;-64
2023/12/16 06:59:11;;;;;;;0.80;0.43;;;;;;;-143.84;100.00;45273.78;5092052;28;20803;-64
2023/12/16 07:01:38;;;;;;;1.57;0.80;;;;;;;-143.84;100.00;45243.31;5091767;28;20901;-64
2023/12/16 07:04:05;;;;;;;0.80;0.60;;;;;;;-143.84;100.00;45245.19;5091437;28;20444;-64
2023/12/16 07:06:33;;;;;;;0.80;0.70;;;;;;;-143.84;100.00;45262.34;5091719;28;20448;-64
2023/12/16 07:09:00;;;;;;;0.80;0.50;;;;;;;-143.84;100.00;45245.19;5091577;28;20459;-64
2023/12/16 07:11:27;;;;;;;0.80;0.50;;;;;;;-143.84;100.00;45247.09;5091616;28;20440;-63
2023/12/16 07:13:54;;;;;;;1.10;0.70;;;;;;;-143.84;100.00;45247.09;5091740;28;20927;-63
2023/12/16 07:16:23;;;;;;;0.80;0.60;;;;;;;-143.84;100.00;45229.97;5091132;28;20484;-62
2023/12/16 07:18:50;;;;;;;0.90;0.50;;;;;;;-143.84;100.00;45271.88;5091315;28;20442;-62
2023/12/16 07:21:17;;;;;;;0.80;0.50;;;;;;;-143.84;100.00;45250.91;5091349;28;20490;-62
2023/12/16 07:23:44;;;;;;;0.80;0.40;;;;;;;-143.84;100.00;45249.00;5091325;28;20441;-62
2023/12/16 07:26:12;;;;;;;0.80;0.60;;;;;;;-143.84;100.00;45245.19;5091138;28;20498;-63
2023/12/16 07:28:39;;;;;;;1.00;0.90;;;;;;;-143.84;100.00;45252.81;5091224;28;20493;-63
2023/12/16 07:31:06;;;;;;;0.90;0.80;;;;;;;-143.84;100.00;45266.16;5091403;28;20509;-64
2023/12/16 07:33:37;;;;;;;0.80;0.53;;;;;;;-143.84;100.00;45243.31;5091083;28;20436;-64
2023/12/16 07:36:04;;;;;;;0.80;0.47;;;;;;;-143.84;100.00;45218.53;5091071;28;20522;-64
2023/12/16 07:38:31;;;;;;;0.80;0.50;;;;;;;-143.84;100.00;45239.50;5090965;28;20505;-64
2023/12/16 07:40:58;;;;;;;1.87;1.03;;;;;;;-143.84;100.00;45201.41;5091207;28;20441;-64
2023/12/16 07:43:26;;;;;;;1.00;0.90;;;;;;;-143.84;100.00;45249.00;5091026;28;20434;-64
2023/12/16 07:45:53;;;;;;;0.80;0.50;;;;;;;-143.84;100.00;45250.91;5090890;28;20882;-64
2023/12/16 07:48:20;;;;;;;0.80;0.57;;;;;;;-143.84;100.00;45224.25;5090911;28;20465;-64
2023/12/16 07:50:51;;;;;;;0.80;0.50;;;;;;;-143.84;100.00;45231.88;5090576;28;20949;-64
2023/12/16 07:53:20;;;;;;;0.80;0.57;;;;;;;-143.84;100.00;45247.09;5090151;28;20450;-64
2023/12/16 07:55:48;;;;;;;0.80;0.50;;;;;;;-143.84;100.00;45241.41;5088072;28;20445;-64
2023/12/16 07:58:15;;;;;;;1.37;1.27;;;;;;;-143.84;100.00;45250.91;5090620;28;20616;-64
2023/12/16 08:00:42;;;;;;;0.90;0.90;;;;;;;-143.84;100.00;45249.00;5090397;28;21019;-64
2023/12/16 08:03:09;;;;;;;1.10;1.00;;;;;;;-143.84;100.00;45243.31;5090669;28;20442;-64
2023/12/16 08:05:37;;;;;;;1.23;1.13;;;;;;;-143.84;100.00;45239.50;5091024;28;20935;-64
2023/12/16 08:08:06;;;;;;;0.80;0.67;;;;;;;-143.84;100.00;45262.34;5090720;28;20441;-64
2023/12/16 08:10:34;;;;;;;0.90;0.70;;;;;;;-143.84;100.00;45258.53;5088164;28;21053;-64
2023/12/16 08:13:01;;;;;;;1.03;0.93;;;;;;;-143.84;100.00;45247.09;5083022;28;20461;-64
2023/12/16 08:15:28;;;;;;;0.80;0.70;;;;;;;-143.84;100.00;45254.72;5089214;28;20820;-64
2023/12/16 08:17:55;;;;;;;0.80;0.40;;;;;;;-143.84;100.00;45231.88;5090124;28;20647;-64
2023/12/16 08:20:22;;;;;;;1.23;1.13;;;;;;;-143.84;100.00;45218.53;5090075;28;20487;-64
2023/12/16 08:22:50;;;;;;;1.30;1.20;;;;;;;-143.84;100.00;45247.09;5090207;28;20446;-65
2023/12/16 08:25:18;;;;;;;0.80;0.50;;;;;;;-143.84;100.00;45235.69;5090096;28;20433;-62
2023/12/16 08:27:45;;;;;;;3.70;2.37;;;;;;;-143.84;100.00;45228.06;5090277;28;20867;-63
2023/12/16 08:30:14;;;;;;;0.80;0.50;;;;;;;-143.84;100.00;45239.50;5089858;28;20950;-62
2023/12/16 08:32:41;;;;;;;2.07;1.97;;;;;;;-143.84;100.00;45228.06;5090098;28;21032;-63
2023/12/16 08:35:09;;;;;;;0.80;0.50;;;;;;;-143.84;100.00;45249.00;5089784;28;20442;-63
2023/12/16 08:37:36;;;;;;;1.10;1.00;;;;;;;-143.84;100.00;45247.09;5089959;28;20893;-63
2023/12/16 08:40:04;;;;;;;0.80;0.50;;;;;;;-143.84;100.00;45247.09;5089915;28;20451;-62
2023/12/16 08:42:33;;;;;;;3.07;2.80;;;;;;;-143.84;100.00;45252.81;5089751;28;20448;-63
2023/12/16 08:45:00;;;;;;;0.80;0.70;;;;;;;-143.84;100.00;45214.72;5089856;28;20993;-63
2023/12/16 08:47:27;;;;;;;0.80;0.50;;;;;;;-143.84;100.00;45239.50;5090129;28;20503;-62
2023/12/16 08:49:55;;;;;;;0.80;0.60;;;;;;;-143.84;100.00;45220.44;5089623;28;21249;-62
2023/12/16 08:52:22;;;;;;;0.90;0.67;;;;;;;-143.84;100.00;45229.97;5089662;28;20430;-62
2023/12/16 08:54:49;;;;;;;0.80;0.50;;;;;;;-143.84;100.00;45226.16;5090058;28;20944;-61
2023/12/16 08:57:16;;;;;;;0.80;0.50;;;;;;;-143.84;100.00;45249.00;5089575;28;20486;-61
2023/12/16 08:59:44;;;;;;;0.80;0.50;;;;;;;-143.84;100.00;45228.06;5089976;28;20435;-61
2023/12/16 09:02:12;;;;;;;1.67;1.43;;;;;;;-143.84;100.00;45228.06;5089251;28;20968;-61
2023/12/16 09:04:39;;;;;;;0.80;0.50;;;;;;;-143.84;100.00;45245.19;5089179;28;20439;-61
2023/12/16 09:07:06;;;;;;;0.80;0.50;;;;;;;-143.84;100.00;45218.53;5089443;28;20840;-62
2023/12/16 09:09:33;;;;;;;0.80;0.50;;;;;;;-143.84;100.00;45228.06;5089697;28;20881;-61
2023/12/16 09:12:00;;;;;;;0.80;0.60;;;;;;;-143.84;100.00;45233.78;5088205;28;20447;-61
2023/12/16 09:14:28;;;;;;;2.40;0.97;;;;;;;-143.84;100.00;45254.72;5088286;28;20892;-61
2023/12/16 09:16:56;;;;;;;1.07;0.73;;;;;;;-143.84;100.00;45243.31;5082551;28;20545;-62
2023/12/16 09:19:23;;;;;;;0.80;0.40;;;;;;;-143.84;100.00;45241.41;5082141;28;20435;-62
2023/12/16 09:21:51;;;;;;;0.80;0.50;;;;;;;-143.84;100.00;45237.59;5085822;28;20447;-61
2023/12/16 09:24:19;;;;;;;0.80;0.43;;;;;;;-143.84;100.00;45249.00;5088177;28;20427;-62
2023/12/16 09:26:46;;;;;;;0.80;0.60;;;;;;;-143.84;100.00;45233.78;5088595;28;20446;-61
2023/12/16 09:29:14;;;;;;;0.80;0.50;;;;;;;-143.84;100.00;45229.97;5085636;28;20435;-62
2023/12/16 09:31:41;;;;;;;0.80;0.57;;;;;;;-143.84;100.00;45229.97;5084613;28;21117;-61
2023/12/16 09:34:10;;;;;;;0.93;0.83;;;;;;;-143.84;100.00;45235.69;5084175;28;20546;-62
2023/12/16 09:36:37;;;;;;;1.77;1.63;;;;;;;-143.84;100.00;45228.06;5082831;28;20968;-61
2023/12/16 09:39:05;;;;;;;1.50;1.40;;;;;;;-143.84;100.00;45247.09;5081609;28;20475;-60
2023/12/16 09:41:32;;;;;;;0.90;0.80;;;;;;;-143.84;100.00;45243.31;5083767;28;21026;-61
2023/12/16 09:44:00;;;;;;;0.80;0.50;;;;;;;-143.84;100.00;45264.25;5083268;28;20930;-61
2023/12/16 09:46:30;;;;;;;0.80;0.50;;;;;;;-143.84;100.00;45247.09;5082969;28;20501;-61
2023/12/16 09:48:57;;;;;;;1.53;1.43;;;;;;;-143.84;100.00;45306.13;5081525;28;21550;-61
2023/12/16 09:51:26;;;;;;;0.80;0.50;;;;;;;-143.84;100.00;45277.56;5082935;28;21035;-62
2023/12/16 09:53:54;;;;;;;0.80;0.50;;;;;;;-143.84;100.00;45249.00;5082480;28;20459;-61
2023/12/16 09:56:22;;;;;;;0.80;0.60;;;;;;;-143.84;100.00;45249.00;5082843;28;20450;-61
2023/12/16 09:58:51;;;;;;;0.80;0.50;;;;;;;-143.84;100.00;45266.16;5087300;28;20482;-61
2023/12/16 10:01:19;;;;;;;0.80;0.50;;;;;;;-143.84;100.00;45222.34;5088716;28;20538;-61
2023/12/16 10:03:48;;;;;;;0.83;0.70;;;;;;;-143.84;100.00;45239.50;5089000;28;20487;-61
2023/12/16 10:06:16;;;;;;;0.80;0.50;;;;;;;-143.84;100.00;45254.72;5088788;28;20442;-61
2023/12/16 10:08:46;;;;;;;0.80;0.63;;;;;;;-143.84;100.00;45241.41;5088814;28;20458;-61
2023/12/16 10:11:14;;;;;;;0.80;0.60;;;;;;;-143.84;100.00;45239.50;5088876;28;20512;-62
2023/12/16 10:13:57;;;;;;;0.90;0.80;;;;;;;-143.84;99.79;45216.63;5088444;28;20454;-61
2023/12/16 10:16:25;;;;;;;1.33;1.23;;;;;;;-143.84;99.60;45256.63;5092740;28;20804;-61
2023/12/16 10:18:53;;;;;;;3.93;1.57;;;;;;;-143.84;99.36;45247.09;5092663;28;20482;-61
2023/12/16 10:21:24;;;;;;;0.80;0.50;;;;;;;-143.84;99.10;45220.44;5093028;28;20542;-61
2023/12/16 10:23:53;;;;;;;0.80;0.50;;;;;;;-143.84;99.06;45247.09;5093095;28;20435;-61
2023/12/16 10:26:20;;;;;;;1.13;1.03;;;;;;;-143.84;98.78;45250.91;5092141;28;20936;-61
2023/12/16 10:28:49;;;;;;;1.00;0.60;;;;;;;-143.84;98.63;45235.69;5092031;28;20809;-61
2023/12/16 10:31:18;;;;;;;0.80;0.50;;;;;;;-143.84;98.62;45290.91;5092488;28;20439;-61
2023/12/16 10:33:45;;;;;;;0.80;0.60;;;;;;;-143.84;98.69;45252.81;5092639;28;20440;-61
2023/12/16 10:36:12;;;;;;;1.57;1.47;;;;;;;-143.84;98.41;45216.63;5092414;28;20957;-60
2023/12/16 10:38:40;;;;;;;1.03;0.70;;;;;;;-143.84;97.88;45243.31;5092407;28;20494;-60
2023/12/16 10:41:10;;;;;;;1.80;1.13;;;;;;;-143.84;97.88;45237.59;5092326;28;20443;-60
2023/12/16 10:43:37;;;;;;;0.90;0.80;;;;;;;-143.84;97.24;45243.31;5084620;28;20516;-60
2023/12/16 10:46:06;;;;;;;1.30;1.20;;;;;;;-143.84;96.73;45228.06;5086489;28;20509;-60
2023/12/16 10:48:36;;;;;;;1.67;1.00;;;;;;;-143.84;96.30;45258.53;5086461;28;20458;-60
2023/12/16 10:51:05;;;;;;;0.80;0.60;;;;;;;-143.84;96.42;45264.25;5084895;28;20764;-60
2023/12/16 10:53:39;;;;;;;0.80;0.57;;;;;;;-143.84;96.43;45254.72;5082663;28;20448;-60
2023/12/16 10:56:17;;;;;;;0.80;0.50;;;;;;;-143.84;96.06;45249.00;5085142;28;20492;-61
2023/12/16 10:58:52;;;;;;;0.90;0.70;;;;;;;-143.84;95.73;45252.81;5085783;28;20467;-60
2023/12/16 11:01:23;;;;;;;0.80;0.50;;;;;;;-143.84;95.10;45269.97;5085421;28;20535;-60
2023/12/16 11:03:55;;;;;;;3.27;1.63;;;;;;;-143.84;94.89;45249.00;5084131;28;20889;-61
2023/12/16 11:06:30;;;;;;;1.63;1.43;;;;;;;-143.84;94.69;45245.19;5085749;28;21047;-60
2023/12/16 11:09:00;;;;;;;0.80;0.60;;;;;;;-143.84;94.37;45250.91;5085674;28;20506;-61
2023/12/16 11:11:30;;;;;;;4.70;2.00;;;;;;;-143.84;93.64;45250.91;5085433;28;20445;-60